Time;durP1;ratioP1;P1;durP2;ratioP2;P2;SDS_P1;SDS_P2;PMS_P1;PMS_P2;Temp;Humidity;BMP_temperature;BMP_pressure;BME280_temperature;BME280_humidity;BME280_pressure;Samples;Min_cycle;Max_cycle;Signal;HPM_P1;HPM_P2
2021/10/22 00:02:24;;;;;;;9.60;3.75;;;5.40;99.90;;;;;;5033841;28;20467;-74
2021/10/22 00:04:50;;;;;;;8.63;4.38;;;5.70;99.90;;;;;;5042646;28;20422;-74
2021/10/22 00:07:16;;;;;;;8.02;3.65;;;5.80;99.90;;;;;;5043602;28;20018;-75
2021/10/22 00:09:42;;;;;;;10.73;4.47;;;5.90;99.90;;;;;;5043767;28;20372;-74
2021/10/22 00:12:08;;;;;;;10.23;5.20;;;5.90;99.90;;;;;;5037973;28;20093;-74
2021/10/22 00:14:34;;;;;;;11.13;5.07;;;6.00;99.90;;;;;;5043670;28;20029;-74
2021/10/22 00:16:59;;;;;;;10.98;4.38;;;5.90;99.90;;;;;;5042526;28;20079;-74
2021/10/22 00:19:25;;;;;;;10.18;5.20;;;5.90;99.90;;;;;;5039606;28;20100;-74
2021/10/22 00:21:50;;;;;;;13.18;5.75;;;5.80;99.90;;;;;;5027601;28;20423;-74
2021/10/22 00:24:16;;;;;;;10.93;5.68;;;5.90;99.90;;;;;;5012306;28;20018;-73
2021/10/22 00:26:41;;;;;;;12.52;4.90;;;5.80;99.90;;;;;;5024090;28;20113;-73
2021/10/22 00:29:07;;;;;;;13.30;4.38;;;5.80;99.90;;;;;;5023282;28;20480;-74
2021/10/22 00:31:32;;;;;;;12.05;5.00;;;5.70;99.90;;;;;;5030659;28;20026;-74
2021/10/22 00:33:58;;;;;;;10.98;4.55;;;5.70;99.90;;;;;;5021021;28;20037;-74
2021/10/22 00:36:24;;;;;;;7.93;4.90;;;5.70;99.90;;;;;;5016512;28;20033;-74
2021/10/22 00:38:50;;;;;;;11.52;4.65;;;5.70;99.90;;;;;;5031929;28;20032;-73
2021/10/22 00:41:17;;;;;;;17.23;5.18;;;5.70;99.90;;;;;;5028078;28;20503;-74
2021/10/22 00:43:43;;;;;;;13.25;4.70;;;5.70;99.90;;;;;;5021230;28;20025;-74
2021/10/22 00:46:09;;;;;;;11.05;5.18;;;5.70;99.90;;;;;;5031751;28;20025;-74
2021/10/22 00:48:36;;;;;;;10.75;4.90;;;5.70;99.90;;;;;;5021438;28;20504;-75
2021/10/22 00:51:04;;;;;;;12.25;4.95;;;5.70;99.90;;;;;;5040321;28;20056;-75
2021/10/22 00:53:30;;;;;;;12.90;4.32;;;5.50;99.90;;;;;;5022695;28;20108;-74
2021/10/22 00:55:56;;;;;;;7.63;4.57;;;5.40;99.90;;;;;;5018490;28;20128;-74
2021/10/22 00:58:22;;;;;;;11.35;4.30;;;5.40;99.90;;;;;;5020930;28;20030;-74
2021/10/22 01:00:48;;;;;;;12.40;4.43;;;5.40;99.90;;;;;;5025169;28;20034;-74
2021/10/22 01:03:13;;;;;;;13.48;4.28;;;5.40;99.90;;;;;;5021672;28;20021;-73
2021/10/22 01:05:39;;;;;;;11.20;4.32;;;5.40;99.90;;;;;;5026344;28;20477;-74
2021/10/22 01:08:06;;;;;;;11.70;4.43;;;5.20;99.90;;;;;;5023167;28;20033;-76
2021/10/22 01:10:32;;;;;;;13.38;4.80;;;5.30;99.90;;;;;;5018495;28;20083;-73
2021/10/22 01:12:59;;;;;;;8.35;4.18;;;5.20;99.90;;;;;;5032097;28;20022;-76
2021/10/22 01:15:25;;;;;;;9.20;3.85;;;5.30;99.90;;;;;;5030318;28;20494;-75
2021/10/22 01:17:51;;;;;;;14.02;4.50;;;5.40;99.90;;;;;;5031581;28;20065;-73
2021/10/22 01:20:19;;;;;;;13.75;4.43;;;5.40;99.90;;;;;;5017681;28;20360;-74
2021/10/22 01:22:46;;;;;;;10.40;4.60;;;5.20;99.90;;;;;;5043105;28;20028;-74
2021/10/22 01:25:14;;;;;;;9.73;4.28;;;5.20;99.90;;;;;;5039995;28;20111;-74
2021/10/22 01:27:40;;;;;;;9.10;4.53;;;5.10;99.90;;;;;;5038528;28;20068;-74
2021/10/22 01:30:08;;;;;;;11.35;5.20;;;5.20;99.90;;;;;;5033758;28;20029;-73
2021/10/22 01:32:34;;;;;;;11.90;4.65;;;5.30;99.90;;;;;;5028840;28;20030;-74
2021/10/22 01:35:00;;;;;;;12.48;5.05;;;5.20;99.90;;;;;;5029693;28;20051;-73
2021/10/22 01:37:26;;;;;;;8.88;3.92;;;5.30;99.90;;;;;;5040541;28;20548;-72
2021/10/22 01:39:51;;;;;;;15.07;4.57;;;5.30;99.90;;;;;;5042979;28;20029;-74
2021/10/22 01:42:17;;;;;;;11.27;5.00;;;5.30;99.90;;;;;;5026967;28;20026;-74
2021/10/22 01:44:43;;;;;;;11.65;4.70;;;5.30;99.90;;;;;;5041551;28;20024;-74
2021/10/22 01:47:09;;;;;;;11.63;4.53;;;5.30;99.90;;;;;;5041930;28;20533;-73
2021/10/22 01:49:34;;;;;;;11.05;4.32;;;5.30;99.90;;;;;;5043249;28;20505;-74
2021/10/22 01:52:00;;;;;;;14.80;5.43;;;5.30;99.90;;;;;;5041741;28;20025;-74
2021/10/22 01:54:27;;;;;;;10.95;4.20;;;5.30;99.90;;;;;;5041530;28;20079;-74
2021/10/22 01:56:52;;;;;;;14.63;4.90;;;5.10;99.90;;;;;;5043504;28;20028;-74
2021/10/22 01:59:18;;;;;;;17.50;5.78;;;5.10;99.90;;;;;;5042585;28;20022;-74
2021/10/22 02:01:43;;;;;;;10.27;4.88;;;4.80;99.90;;;;;;5048436;28;20503;-74
2021/10/22 02:04:09;;;;;;;13.32;4.60;;;4.90;99.90;;;;;;5043028;28;20075;-74
2021/10/22 02:06:34;;;;;;;12.43;4.95;;;4.80;99.90;;;;;;5048433;28;20083;-74
2021/10/22 02:09:00;;;;;;;9.90;4.38;;;4.70;99.90;;;;;;5042787;28;20025;-74
2021/10/22 02:11:26;;;;;;;12.43;4.30;;;4.60;99.90;;;;;;5046297;28;20475;-74
2021/10/22 02:13:51;;;;;;;11.00;5.53;;;4.70;99.90;;;;;;5047779;28;20111;-74
2021/10/22 02:16:17;;;;;;;16.15;6.72;;;4.60;99.90;;;;;;5044736;28;20434;-74
2021/10/22 02:18:43;;;;;;;18.35;6.97;;;4.40;99.90;;;;;;5045209;28;20021;-74
2021/10/22 02:21:09;;;;;;;19.17;7.80;;;4.10;99.90;;;;;;5043625;28;20035;-73
2021/10/22 02:23:35;;;;;;;15.80;7.68;;;4.00;99.90;;;;;;5044661;28;20036;-74
2021/10/22 02:26:01;;;;;;;18.50;7.57;;;3.90;99.90;;;;;;5045766;28;20055;-74
2021/10/22 02:28:26;;;;;;;18.35;7.78;;;3.60;99.90;;;;;;5042332;28;20026;-74
2021/10/22 02:30:54;;;;;;;16.10;8.40;;;3.50;99.90;;;;;;5040948;28;20044;-74
2021/10/22 02:33:20;;;;;;;18.95;7.55;;;3.50;99.90;;;;;;5029151;28;20395;-74
2021/10/22 02:35:45;;;;;;;16.15;6.95;;;3.70;99.90;;;;;;5045518;28;20025;-74
2021/10/22 02:38:11;;;;;;;19.63;8.65;;;3.80;99.90;;;;;;5042596;28;20068;-74
2021/10/22 02:40:36;;;;;;;11.50;6.75;;;4.00;99.90;;;;;;5051140;28;20124;-74
2021/10/22 02:43:02;;;;;;;14.75;6.43;;;3.80;99.90;;;;;;5041482;28;20033;-74
2021/10/22 02:45:28;;;;;;;16.05;7.97;;;4.00;99.90;;;;;;5041554;28;20082;-74
2021/10/22 02:47:53;;;;;;;15.98;7.55;;;4.10;99.90;;;;;;5045873;28;20108;-74
2021/10/22 02:50:21;;;;;;;14.77;7.25;;;4.30;99.90;;;;;;5042411;28;20033;-74
2021/10/22 02:52:47;;;;;;;11.80;6.53;;;4.30;99.90;;;;;;5044515;28;20021;-74
2021/10/22 02:55:12;;;;;;;14.95;7.38;;;4.30;99.90;;;;;;5044261;28;20047;-74
2021/10/22 02:57:38;;;;;;;16.65;7.72;;;4.40;99.90;;;;;;5044037;28;20029;-74
2021/10/22 03:00:05;;;;;;;15.57;8.30;;;4.40;99.90;;;;;;5043884;28;20039;-74
2021/10/22 03:02:31;;;;;;;16.70;7.55;;;4.40;99.90;;;;;;5043359;28;20025;-74
2021/10/22 03:04:56;;;;;;;14.68;8.55;;;4.30;99.90;;;;;;5044113;28;20028;-74
2021/10/22 03:07:22;;;;;;;19.08;8.23;;;4.30;99.90;;;;;;5043365;28;20030;-74
2021/10/22 03:09:47;;;;;;;13.43;8.18;;;4.30;99.90;;;;;;5044643;28;20025;-74
2021/10/22 03:12:13;;;;;;;16.10;7.20;;;4.40;99.90;;;;;;5042031;28;20057;-75
2021/10/22 03:14:38;;;;;;;12.55;7.40;;;4.30;99.90;;;;;;5045806;28;20514;-73
2021/10/22 03:17:04;;;;;;;16.35;8.45;;;4.40;99.90;;;;;;5049192;28;20044;-74
2021/10/22 03:19:29;;;;;;;14.43;8.55;;;4.40;99.90;;;;;;5040443;28;20109;-74
2021/10/22 03:21:55;;;;;;;16.67;8.90;;;4.30;99.90;;;;;;5046625;28;20032;-74
2021/10/22 03:24:21;;;;;;;18.13;8.90;;;4.40;99.90;;;;;;5041906;28;20112;-75
2021/10/22 03:26:46;;;;;;;20.70;10.13;;;4.50;99.90;;;;;;5043477;28;20025;-74
2021/10/22 03:29:12;;;;;;;14.32;7.57;;;4.40;99.90;;;;;;5044282;28;20021;-74
2021/10/22 03:31:37;;;;;;;14.98;8.98;;;4.40;99.90;;;;;;5044441;28;20029;-73
2021/10/22 03:34:03;;;;;;;21.65;9.50;;;4.40;99.90;;;;;;5042357;28;20025;-74
2021/10/22 03:36:28;;;;;;;16.13;9.13;;;4.40;99.90;;;;;;5043756;28;20049;-73
2021/10/22 03:38:54;;;;;;;27.15;11.32;;;4.20;99.90;;;;;;5043579;28;20028;-74
2021/10/22 03:41:20;;;;;;;24.25;11.07;;;3.90;99.90;;;;;;5040769;28;20499;-73
2021/10/22 03:43:45;;;;;;;21.00;11.68;;;3.90;99.90;;;;;;5039693;28;20022;-74
2021/10/22 03:46:11;;;;;;;18.98;10.90;;;3.80;99.90;;;;;;5040056;28;20033;-74
2021/10/22 03:48:37;;;;;;;17.90;9.82;;;3.60;99.90;;;;;;5047695;28;20103;-73
2021/10/22 03:51:02;;;;;;;19.15;10.45;;;3.90;99.90;;;;;;5040350;28;20400;-73
2021/10/22 03:53:28;;;;;;;18.85;9.95;;;4.00;99.90;;;;;;5047056;28;20037;-73
2021/10/22 03:55:53;;;;;;;21.08;10.65;;;4.10;99.90;;;;;;5040649;28;20044;-74
2021/10/22 03:58:19;;;;;;;23.08;11.32;;;4.30;99.90;;;;;;5045690;28;20083;-74
2021/10/22 04:00:46;;;;;;;21.58;11.82;;;4.30;99.90;;;;;;5044479;28;20029;-74
2021/10/22 04:03:13;;;;;;;23.25;11.02;;;4.10;99.90;;;;;;5047492;28;20032;-74
2021/10/22 04:05:38;;;;;;;21.00;10.75;;;4.20;99.90;;;;;;5040870;28;20025;-74
2021/10/22 04:08:04;;;;;;;20.92;11.60;;;4.40;99.90;;;;;;5043860;28;20028;-75
2021/10/22 04:10:29;;;;;;;21.00;10.50;;;4.60;99.90;;;;;;5040116;28;20025;-74
2021/10/22 04:12:55;;;;;;;25.58;11.35;;;4.50;99.90;;;;;;5042476;28;20623;-75
2021/10/22 04:15:21;;;;;;;16.48;11.05;;;4.50;99.90;;;;;;5042588;28;20042;-74
2021/10/22 04:17:46;;;;;;;24.00;11.48;;;4.40;99.90;;;;;;5042305;28;20595;-75
2021/10/22 04:20:12;;;;;;;22.52;11.43;;;4.40;99.90;;;;;;5032814;28;20041;-74
2021/10/22 04:22:38;;;;;;;22.10;13.55;;;4.40;99.90;;;;;;5019815;28;20499;-74
2021/10/22 04:25:04;;;;;;;38.08;22.80;;;4.30;99.90;;;;;;5026968;28;20054;-74
2021/10/22 04:27:35;;;;;;;35.80;20.38;;;4.40;99.90;;;;;;5025466;28;20029;-74
2021/10/22 04:30:05;;;;;;;60.88;37.63;;;4.40;99.90;;;;;;5025736;28;20026;-74
2021/10/22 04:32:30;;;;;;;37.45;25.35;;;4.30;99.90;;;;;;5024418;28;20021;-76
2021/10/22 04:34:56;;;;;;;26.73;14.75;;;4.30;99.90;;;;;;5017801;28;20079;-79
2021/10/22 04:43:06;;;;;;;24.20;12.80;;;4.30;99.90;;;;;;5019941;28;20025;-76
2021/10/22 04:45:34;;;;;;;19.42;10.32;;;4.30;99.90;;;;;;5030342;28;20021;-76
2021/10/22 04:48:01;;;;;;;21.98;11.73;;;4.40;99.90;;;;;;5019478;28;20438;-76
2021/10/22 04:50:28;;;;;;;22.27;12.10;;;4.30;99.90;;;;;;5017214;28;20061;-77
2021/10/22 04:52:54;;;;;;;32.72;16.83;;;4.30;99.90;;;;;;5023364;28;20026;-76
2021/10/22 04:55:22;;;;;;;19.15;11.98;;;4.10;99.90;;;;;;5013902;28;20034;-77
2021/10/22 04:57:49;;;;;;;23.95;12.02;;;4.20;99.90;;;;;;5020663;28;20396;-77
2021/10/22 05:00:15;;;;;;;26.60;15.27;;;4.20;99.90;;;;;;5029132;28;20051;-77
2021/10/22 05:02:40;;;;;;;24.70;14.10;;;4.10;99.90;;;;;;5019554;28;20021;-76
2021/10/22 05:05:06;;;;;;;32.15;20.42;;;4.10;99.90;;;;;;5013076;28;20052;-76
2021/10/22 05:07:32;;;;;;;30.48;14.18;;;4.10;99.90;;;;;;5030511;28;20053;-76
2021/10/22 05:09:58;;;;;;;32.53;16.17;;;3.90;99.90;;;;;;5018560;28;20030;-76
2021/10/22 05:12:24;;;;;;;27.95;16.17;;;3.80;99.90;;;;;;5022227;28;20065;-75
2021/10/22 05:14:50;;;;;;;33.47;19.40;;;3.80;99.90;;;;;;5025272;28;20021;-75
2021/10/22 05:17:16;;;;;;;36.00;22.13;;;3.70;99.90;;;;;;5019731;28;20530;-75
2021/10/22 05:19:42;;;;;;;34.13;18.23;;;3.40;99.90;;;;;;5027590;28;20037;-75
2021/10/22 05:22:08;;;;;;;33.38;16.55;;;3.40;99.90;;;;;;5020848;28;20034;-75
2021/10/22 05:24:34;;;;;;;33.90;22.23;;;3.50;99.90;;;;;;5018318;28;20037;-75
2021/10/22 05:27:00;;;;;;;26.83;16.48;;;3.40;99.90;;;;;;5022636;28;20384;-76
2021/10/22 05:29:25;;;;;;;29.73;17.38;;;3.40;99.90;;;;;;5013027;28;20018;-75
2021/10/22 05:31:51;;;;;;;29.30;16.70;;;3.50;99.90;;;;;;5031335;28;20088;-75
2021/10/22 05:34:16;;;;;;;36.63;22.55;;;3.80;99.90;;;;;;5021523;28;20654;-75
2021/10/22 05:36:42;;;;;;;91.10;56.25;;;3.60;99.90;;;;;;5035214;28;20029;-75
2021/10/22 05:39:08;;;;;;;95.07;56.47;;;3.60;99.90;;;;;;5021954;28;21394;-75
2021/10/22 05:41:33;;;;;;;167.05;105.88;;;3.50;99.90;;;;;;5034940;28;20033;-75
2021/10/22 05:43:59;;;;;;;111.80;71.72;;;3.50;99.90;;;;;;5037028;28;20026;-75
2021/10/22 05:46:24;;;;;;;79.88;54.67;;;3.60;99.90;;;;;;5035078;28;20026;-76
2021/10/22 05:48:50;;;;;;;120.68;80.35;;;3.60;99.90;;;;;;5021647;28;20548;-75
2021/10/22 05:51:16;;;;;;;147.65;98.10;;;3.60;99.90;;;;;;5025162;28;20071;-75
2021/10/22 05:53:42;;;;;;;136.45;89.95;;;3.60;99.90;;;;;;5030115;28;20120;-75
2021/10/22 05:56:10;;;;;;;121.25;78.30;;;3.60;99.90;;;;;;5026816;28;20109;-75
2021/10/22 05:58:36;;;;;;;55.55;33.00;;;4.00;99.90;;;;;;5028238;28;20021;-75
2021/10/22 06:01:04;;;;;;;40.70;21.15;;;3.90;99.90;;;;;;5021741;28;20120;-75
2021/10/22 06:03:30;;;;;;;35.35;17.00;;;3.90;99.90;;;;;;5021392;28;20076;-75
2021/10/22 06:05:56;;;;;;;27.20;12.27;;;3.80;99.90;;;;;;5033506;28;20026;-75
2021/10/22 06:08:22;;;;;;;21.20;10.20;;;3.80;99.90;;;;;;5021272;28;20029;-75
2021/10/22 06:10:48;;;;;;;21.42;9.70;;;3.90;99.90;;;;;;5033142;28;20029;-75
2021/10/22 06:13:18;;;;;;;25.35;10.48;;;4.00;99.90;;;;;;5018175;28;20026;-75
2021/10/22 06:15:44;;;;;;;26.73;10.40;;;4.00;99.90;;;;;;5023886;28;20526;-72
2021/10/22 06:18:11;;;;;;;21.25;9.93;;;4.00;99.90;;;;;;5021186;28;20033;-73
2021/10/22 06:20:46;;;;;;;27.08;10.35;;;4.10;99.90;;;;;;5023921;28;20052;-75
2021/10/22 06:25:39;;;;;;;23.88;9.68;;;4.20;99.90;;;;;;5014806;28;20064;-75
2021/10/22 06:28:05;;;;;;;24.40;10.50;;;4.30;99.90;;;;;;5017092;28;20029;-75
2021/10/22 06:30:32;;;;;;;20.92;10.43;;;4.30;99.90;;;;;;5023557;28;20041;-75
2021/10/22 06:32:57;;;;;;;23.05;9.57;;;4.30;99.90;;;;;;5031543;28;20506;-75
2021/10/22 06:35:23;;;;;;;20.98;9.43;;;4.30;99.90;;;;;;5030452;28;20030;-75
2021/10/22 06:37:49;;;;;;;21.25;9.40;;;4.30;99.90;;;;;;5016809;28;20117;-75
2021/10/22 06:40:15;;;;;;;23.13;9.10;;;4.40;99.90;;;;;;5031350;28;20034;-73
2021/10/22 06:42:41;;;;;;;20.15;9.02;;;4.40;99.90;;;;;;5034069;28;20444;-75
2021/10/22 06:45:07;;;;;;;21.98;8.57;;;4.40;99.90;;;;;;5033979;28;20045;-74
2021/10/22 06:47:32;;;;;;;18.80;8.23;;;4.50;99.90;;;;;;5033840;28;20392;-74
2021/10/22 06:49:58;;;;;;;20.73;7.80;;;4.50;99.90;;;;;;5033832;28;20021;-75
2021/10/22 06:52:23;;;;;;;20.25;8.05;;;4.70;99.90;;;;;;5020303;28;20022;-73
2021/10/22 06:54:51;;;;;;;21.52;8.35;;;4.70;99.90;;;;;;5033950;28;20030;-74
2021/10/22 06:57:17;;;;;;;19.48;7.75;;;4.70;99.90;;;;;;5034056;28;20049;-73
2021/10/22 06:59:42;;;;;;;22.65;8.68;;;4.80;99.90;;;;;;5037205;28;20033;-74
2021/10/22 07:02:08;;;;;;;20.77;8.73;;;4.90;99.90;;;;;;5035359;28;20103;-74
2021/10/22 07:04:33;;;;;;;21.63;8.13;;;4.90;99.90;;;;;;5021886;28;20373;-74
2021/10/22 07:07:14;;;;;;;23.60;8.63;;;4.90;99.90;;;;;;5013795;28;20018;-74
2021/10/22 07:09:41;;;;;;;18.02;7.78;;;5.00;99.90;;;;;;5027282;28;20020;-73
2021/10/22 07:12:06;;;;;;;20.83;8.45;;;5.10;99.90;;;;;;5033525;28;20023;-73
2021/10/22 07:14:35;;;;;;;18.20;8.23;;;5.10;99.90;;;;;;5020339;28;20022;-73
2021/10/22 07:17:01;;;;;;;19.10;7.53;;;5.10;99.90;;;;;;5013912;28;20014;-74
2021/10/22 07:19:27;;;;;;;21.95;8.27;;;5.10;99.90;;;;;;5026697;28;20483;-74
2021/10/22 07:21:53;;;;;;;23.40;7.95;;;5.10;99.90;;;;;;5020493;28;20030;-74
2021/10/22 07:24:21;;;;;;;18.67;7.28;;;5.20;99.90;;;;;;5033178;28;20105;-73
2021/10/22 07:26:47;;;;;;;18.15;8.20;;;5.30;99.90;;;;;;5025729;28;20404;-72
2021/10/22 07:29:13;;;;;;;20.63;7.40;;;5.30;99.90;;;;;;5025882;28;20025;-73
2021/10/22 07:31:39;;;;;;;20.17;7.80;;;5.30;99.90;;;;;;5032770;28;20029;-74
2021/10/22 07:34:05;;;;;;;19.05;7.65;;;5.30;99.90;;;;;;5017431;28;20026;-74
2021/10/22 07:36:30;;;;;;;19.95;7.53;;;5.30;99.90;;;;;;5020772;28;20021;-74
2021/10/22 07:38:56;;;;;;;18.10;7.32;;;5.30;99.90;;;;;;5032743;28;20025;-75
2021/10/22 07:41:21;;;;;;;16.83;7.13;;;5.30;99.90;;;;;;5032803;28;20147;-75
2021/10/22 07:43:47;;;;;;;19.85;6.70;;;5.40;99.90;;;;;;5033231;28;20033;-75
2021/10/22 07:46:13;;;;;;;15.70;6.75;;;5.40;99.90;;;;;;5032621;28;20025;-73
2021/10/22 07:48:41;;;;;;;15.82;7.18;;;5.50;99.90;;;;;;5032711;28;20515;-74
2021/10/22 07:51:07;;;;;;;17.65;7.05;;;5.60;99.90;;;;;;5032670;28;20028;-75
2021/10/22 07:53:32;;;;;;;14.93;5.95;;;5.50;99.90;;;;;;5019245;28;20030;-74
2021/10/22 07:55:58;;;;;;;19.23;7.68;;;5.50;99.90;;;;;;5030788;28;20522;-74
2021/10/22 07:58:23;;;;;;;19.40;6.82;;;5.50;99.90;;;;;;5032566;28;20035;-74
2021/10/22 08:00:49;;;;;;;21.83;6.40;;;5.60;99.90;;;;;;5025842;28;20088;-74
2021/10/22 08:03:15;;;;;;;20.25;7.00;;;5.60;99.90;;;;;;5026086;28;20025;-74
2021/10/22 08:05:40;;;;;;;22.35;7.40;;;5.50;99.90;;;;;;5018320;28;20487;-75
2021/10/22 08:08:07;;;;;;;16.77;6.97;;;5.50;99.90;;;;;;5019100;28;20080;-74
2021/10/22 08:10:32;;;;;;;14.60;7.30;;;5.60;99.90;;;;;;5019539;28;20033;-73
2021/10/22 08:12:59;;;;;;;12.70;5.95;;;5.70;99.90;;;;;;5034535;28;20545;-75
2021/10/22 08:15:25;;;;;;;17.20;6.20;;;5.60;99.90;;;;;;5045404;28;20025;-75
2021/10/22 08:17:50;;;;;;;21.33;6.70;;;5.50;99.90;;;;;;5032055;28;20068;-75
2021/10/22 08:20:21;;;;;;;20.98;6.68;;;5.60;99.90;;;;;;5012336;28;20385;-75
2021/10/22 08:22:47;;;;;;;15.60;6.07;;;5.80;99.90;;;;;;5011384;28;20029;-75
2021/10/22 08:25:14;;;;;;;15.15;5.72;;;5.90;99.90;;;;;;5024113;28;20026;-74
2021/10/22 08:27:45;;;;;;;16.10;5.70;;;5.80;99.90;;;;;;5025196;28;20022;-75
2021/10/22 08:30:14;;;;;;;24.17;5.95;;;5.80;99.90;;;;;;5030755;28;20393;-75
2021/10/22 08:32:40;;;;;;;12.50;5.40;;;5.90;99.90;;;;;;5028654;28;20025;-74
2021/10/22 08:35:07;;;;;;;14.95;4.78;;;5.90;99.90;;;;;;5021492;28;20025;-75
2021/10/22 08:37:34;;;;;;;17.63;5.38;;;6.00;99.90;;;;;;5018317;28;20030;-74
2021/10/22 08:40:00;;;;;;;18.67;5.28;;;6.10;99.90;;;;;;5031210;28;20037;-74
2021/10/22 08:42:26;;;;;;;10.75;4.53;;;6.20;99.90;;;;;;5031050;28;20112;-74
2021/10/22 08:44:53;;;;;;;13.77;4.63;;;6.40;99.90;;;;;;5022616;28;20031;-74
2021/10/22 08:47:24;;;;;;;11.52;4.60;;;6.20;99.90;;;;;;5024200;28;20026;-75
2021/10/22 08:49:50;;;;;;;14.30;4.43;;;6.30;99.90;;;;;;5022480;28;20499;-75
2021/10/22 08:52:16;;;;;;;12.88;4.10;;;6.40;99.90;;;;;;5027779;28;20029;-74
2021/10/22 08:54:42;;;;;;;13.88;4.22;;;6.20;99.90;;;;;;5022170;28;20399;-75
2021/10/22 08:57:08;;;;;;;15.25;4.47;;;6.30;99.90;;;;;;5018407;28;20052;-74
2021/10/22 08:59:34;;;;;;;14.45;4.22;;;6.30;99.90;;;;;;5021195;28;20026;-75
2021/10/22 09:02:25;;;;;;;12.50;4.03;;;6.50;99.90;;;;;;5015055;28;20067;-74
2021/10/22 09:04:52;;;;;;;13.82;3.85;;;6.70;99.90;;;;;;5031701;28;20029;-74
2021/10/22 09:07:20;;;;;;;12.10;4.32;;;6.70;99.90;;;;;;5018914;28;20396;-74
2021/10/22 09:09:47;;;;;;;12.48;4.68;;;6.80;99.90;;;;;;5022244;28;20076;-74
2021/10/22 09:12:13;;;;;;;11.38;3.55;;;6.80;99.90;;;;;;5028248;28;20026;-74
2021/10/22 09:14:57;;;;;;;11.80;3.35;;;6.90;99.90;;;;;;5027597;28;20113;-75
2021/10/22 09:17:39;;;;;;;13.10;3.95;;;6.80;99.90;;;;;;5025326;28;20495;-74
2021/10/22 09:20:07;;;;;;;11.20;3.45;;;7.00;99.90;;;;;;5020617;28;20037;-75
2021/10/22 09:22:34;;;;;;;13.23;3.75;;;7.00;99.90;;;;;;5021897;28;20029;-75
2021/10/22 09:25:10;;;;;;;10.55;3.80;;;7.10;99.90;;;;;;5033596;28;20026;-74
2021/10/22 09:27:56;;;;;;;9.40;3.53;;;7.20;99.90;;;;;;5020970;28;20026;-75
2021/10/22 09:30:47;;;;;;;;;;;7.40;99.90;;;;;;5025749;28;20037;-75
2021/10/22 09:33:17;;;;;;;7.38;3.40;;;7.50;99.90;;;;;;5022272;28;19905;-75
2021/10/22 09:35:44;;;;;;;10.77;3.10;;;7.50;99.90;;;;;;5021893;28;20026;-75
2021/10/22 09:38:10;;;;;;;9.38;3.55;;;7.50;99.90;;;;;;5026705;28;20064;-75
2021/10/22 09:40:39;;;;;;;11.32;3.10;;;7.50;99.90;;;;;;5052079;28;20124;-74
2021/10/22 09:43:34;;;;;;;9.80;3.45;;;7.20;99.90;;;;;;5027016;28;20022;-75
2021/10/22 09:46:15;;;;;;;9.75;3.00;;;7.10;99.90;;;;;;5028236;28;20032;-75
2021/10/22 09:48:43;;;;;;;9.65;3.47;;;7.10;99.90;;;;;;5026928;28;20476;-75
2021/10/22 09:51:29;;;;;;;9.25;3.00;;;7.20;99.90;;;;;;5022749;28;20053;-75
2021/10/22 09:54:02;;;;;;;10.35;3.15;;;7.00;99.90;;;;;;5023477;28;20037;-75
2021/10/22 09:56:29;;;;;;;10.23;3.40;;;7.20;99.90;;;;;;5042599;28;20096;-75
2021/10/22 09:59:04;;;;;;;10.30;3.00;;;7.20;99.90;;;;;;5044663;28;20088;-75
2021/10/22 10:01:32;;;;;;;10.55;3.70;;;7.20;99.90;;;;;;5048303;28;20025;-75
2021/10/22 10:04:00;;;;;;;9.52;3.03;;;7.30;99.90;;;;;;5042847;28;20057;-75
2021/10/22 10:06:27;;;;;;;11.25;3.58;;;7.40;99.90;;;;;;5048628;28;20087;-75
2021/10/22 10:08:52;;;;;;;9.20;3.40;;;7.50;99.90;;;;;;5042763;28;20024;-75
2021/10/22 10:11:19;;;;;;;8.45;2.60;;;7.70;99.90;;;;;;5049792;28;20025;-75
2021/10/22 10:13:45;;;;;;;8.43;2.70;;;7.90;99.90;;;;;;5045947;28;20020;-75
2021/10/22 10:16:12;;;;;;;8.02;3.00;;;8.00;99.90;;;;;;5045627;28;20529;-75
2021/10/22 10:18:44;;;;;;;10.57;2.60;;;8.20;99.90;;;;;;5030494;28;20033;-75
2021/10/22 10:21:13;;;;;;;5.53;2.58;;;8.10;99.90;;;;;;5041440;28;20025;-75
2021/10/22 10:23:42;;;;;;;7.55;2.30;;;8.10;99.90;;;;;;5045637;28;20032;-75
2021/10/22 10:26:22;;;;;;;8.05;2.55;;;8.10;99.90;;;;;;5038457;28;20420;-75
2021/10/22 10:28:50;;;;;;;8.70;2.45;;;8.20;99.90;;;;;;5046026;28;20025;-75
2021/10/22 10:31:46;;;;;;;8.27;2.30;;;8.20;99.90;;;;;;5045279;28;20079;-75
2021/10/22 10:34:27;;;;;;;9.00;2.50;;;8.30;99.90;;;;;;5042635;28;20071;-75
2021/10/22 10:36:55;;;;;;;6.72;2.72;;;8.40;99.90;;;;;;5045844;28;20052;-74
2021/10/22 10:39:42;;;;;;;9.75;2.85;;;8.20;99.90;;;;;;5042776;28;20029;-73
2021/10/22 10:42:29;;;;;;;8.38;2.35;;;8.30;99.90;;;;;;5044673;28;20068;-74
2021/10/22 10:45:05;;;;;;;6.35;2.28;;;8.60;99.90;;;;;;5030324;28;20060;-74
2021/10/22 10:47:31;;;;;;;5.82;2.33;;;8.60;99.90;;;;;;5044125;28;20017;-74
2021/10/22 10:49:58;;;;;;;6.47;2.30;;;8.50;99.90;;;;;;5038810;28;20041;-74
2021/10/22 10:52:37;;;;;;;9.95;2.25;;;8.40;99.90;;;;;;5041148;28;20132;-73
2021/10/22 10:55:39;;;;;;;9.93;2.88;;;8.60;99.90;;;;;;5043681;28;20032;-73
2021/10/22 10:58:09;;;;;;;9.75;2.67;;;8.70;99.90;;;;;;5024405;28;20029;-73
2021/10/22 11:00:48;;;;;;;9.25;2.38;;;8.60;99.90;;;;;;5033288;28;20044;-73
2021/10/22 11:03:17;;;;;;;10.07;2.95;;;8.60;99.90;;;;;;5033604;28;20021;-73
2021/10/22 11:05:49;;;;;;;9.57;2.67;;;8.80;99.90;;;;;;5026308;28;20449;-73
2021/10/22 11:08:36;;;;;;;8.07;2.38;;;9.00;99.90;;;;;;5027059;28;20014;-74
2021/10/22 11:11:17;;;;;;;8.27;2.63;;;9.10;99.90;;;;;;5023187;28;20060;-73
2021/10/22 11:13:50;;;;;;;9.05;2.33;;;8.90;99.90;;;;;;5018835;28;20036;-73
2021/10/22 11:16:22;;;;;;;7.88;2.60;;;9.00;99.90;;;;;;5020262;28;20026;-73
2021/10/22 11:19:09;;;;;;;9.10;2.63;;;9.10;99.90;;;;;;5024709;28;20503;-73
2021/10/22 11:22:01;;;;;;;11.07;2.20;;;9.00;99.90;;;;;;5026712;28;20075;-73
2021/10/22 11:24:35;;;;;;;9.52;2.28;;;9.00;99.90;;;;;;5026279;28;20037;-74
2021/10/22 11:27:09;;;;;;;6.93;2.53;;;9.10;99.90;;;;;;5022868;28;20049;-73
2021/10/22 11:29:48;;;;;;;4.05;1.90;;;9.10;99.90;;;;;;5019819;28;20463;-74
2021/10/22 11:32:21;;;;;;;7.15;2.67;;;9.20;99.90;;;;;;5018425;28;20030;-74
2021/10/22 11:34:56;;;;;;;8.20;2.50;;;9.20;99.90;;;;;;5020115;28;20140;-73
2021/10/22 11:37:25;;;;;;;5.45;1.90;;;9.40;99.90;;;;;;5019761;28;20029;-74
2021/10/22 11:39:53;;;;;;;9.55;2.15;;;9.50;99.90;;;;;;5032726;28;20381;-74
2021/10/22 11:42:27;;;;;;;5.45;2.00;;;9.40;99.90;;;;;;5032642;28;20028;-74
2021/10/22 11:45:01;;;;;;;8.68;2.50;;;9.80;99.90;;;;;;5023091;28;20397;-74
2021/10/22 11:47:36;;;;;;;6.22;2.17;;;9.90;99.90;;;;;;5026326;28;20022;-74
2021/10/22 11:50:11;;;;;;;7.10;2.22;;;10.10;99.90;;;;;;5024433;28;20100;-74
2021/10/22 11:52:36;;;;;;;7.93;2.10;;;10.50;99.90;;;;;;5018076;28;20026;-74
2021/10/22 11:55:03;;;;;;;7.82;2.17;;;10.40;99.90;;;;;;5020078;28;20041;-74
2021/10/22 11:57:29;;;;;;;4.80;1.52;;;10.10;99.90;;;;;;5025728;28;20059;-74
2021/10/22 11:59:56;;;;;;;8.32;2.03;;;9.60;99.90;;;;;;5024279;28;20024;-73
2021/10/22 12:02:25;;;;;;;5.45;1.63;;;9.90;99.90;;;;;;5025902;28;20176;-73
2021/10/22 12:04:59;;;;;;;8.52;1.83;;;9.80;99.90;;;;;;5025008;28;20025;-73
2021/10/22 12:07:28;;;;;;;5.22;1.80;;;9.50;99.90;;;;;;5032335;28;20030;-73
2021/10/22 12:09:55;;;;;;;6.38;1.90;;;9.50;99.90;;;;;;5018963;28;20026;-73
2021/10/22 12:12:22;;;;;;;4.63;1.80;;;9.70;99.90;;;;;;5024006;28;20109;-73
2021/10/22 12:14:49;;;;;;;5.30;1.90;;;9.70;99.90;;;;;;5024586;28;20017;-74
2021/10/22 12:17:18;;;;;;;6.97;1.90;;;9.70;99.90;;;;;;5020998;28;20025;-74
2021/10/22 12:19:45;;;;;;;5.40;1.73;;;9.50;99.90;;;;;;5028681;28;20105;-74
2021/10/22 12:22:13;;;;;;;5.00;1.75;;;9.70;99.90;;;;;;5021184;28;20105;-73
2021/10/22 12:24:41;;;;;;;4.72;2.13;;;9.70;99.90;;;;;;5018620;28;20026;-74
2021/10/22 12:27:07;;;;;;;5.22;1.92;;;9.80;99.90;;;;;;5022875;28;20101;-74
2021/10/22 12:29:53;;;;;;;6.88;2.08;;;9.90;99.90;;;;;;5028058;28;20391;-74
2021/10/22 12:32:29;;;;;;;;;;;9.90;99.90;;;;;;5019491;28;20058;-74
2021/10/22 12:34:55;;;;;;;5.82;2.30;;;9.90;99.90;;;;;;5018905;28;19913;-74
2021/10/22 12:37:30;;;;;;;6.13;1.77;;;10.10;99.90;;;;;;5032037;28;20096;-74
2021/10/22 12:39:56;;;;;;;5.57;1.52;;;10.20;99.90;;;;;;5018066;28;20044;-74
2021/10/22 12:42:24;;;;;;;4.43;1.80;;;10.20;99.90;;;;;;5027377;28;20542;-74
2021/10/22 12:45:10;;;;;;;5.72;1.48;;;10.30;99.90;;;;;;5032073;28;20026;-74
2021/10/22 12:47:37;;;;;;;3.58;1.63;;;10.30;99.90;;;;;;5018716;28;20025;-74
2021/10/22 12:50:03;;;;;;;6.30;1.90;;;10.10;99.90;;;;;;5032014;28;20033;-74
2021/10/22 12:52:29;;;;;;;5.93;1.60;;;10.30;99.90;;;;;;5017109;28;20523;-73
2021/10/22 12:54:54;;;;;;;3.80;1.75;;;10.40;99.90;;;;;;5031691;28;20038;-74
2021/10/22 12:57:25;;;;;;;7.63;1.60;;;10.30;99.90;;;;;;5018563;28;20029;-74
2021/10/22 12:59:55;;;;;;;6.45;1.60;;;10.20;99.90;;;;;;5019919;28;20022;-74
2021/10/22 13:02:25;;;;;;;4.90;1.23;;;10.30;99.90;;;;;;5030728;28;20050;-74